Aérodrome :
LOGIN :

S'inscrire | Disclaimer

   EN    FR    IT 

 










Légende :    VFR   VFR Marginal   IFR   IFR Intensif   IFR Très Intensif
Visi : 
Plafond : 
>= 8 km
>= 3000ft
5 à 8 km
1000 à 3000 ft
1500m à 5 km
500 à 1000 ft
800 à 1500m
200 à 500 ft
< 800m
< 200 ft
Symboles :   Orages  Brouillard  Fortes neiges  Fortes précipitations  Vent > 20 kt
SIGMETs :   Divers  Orages  Givrage  Turbulence  Onde Orograph.  Cendres Volcan.







- Altitude de l'aérodrome : 782 ft
- Code IATA : BGY


LIME - Orio al Serio International - Bergamo

DERNIER METAR :
  • 231550Z 20004KT 2000 BR BKN035 08/06 Q1013

METARs EXPIRÉS :
  • 231520Z 19003KT 3000 BR BKN035 08/06 Q1013
  • 231450Z 20004KT 160V240 3000 BR BKN035 08/07 Q1013
  • 231420Z VRB02KT 3000 BR BKN030 08/07 Q1014
  • 231350Z VRB02KT 3000 BR BKN030 08/07 Q1014
  • 231320Z 19003KT 150V310 3000 BR BKN030 08/07 Q1014

TAF TAF LIME
Valide du 23 à 12h jusqu'au 24 à 12h UTC


231100Z 2312/2412 VRB05KT 2000 BR BKN013
TEMPO 2403/2409 0400 FG
Pas de NOTAMs connus pour ce terrain.



MET'MAP, la Météo Aéronautique d'un coup d'oeil ! - Copyright ORBIFLY Décembre 2007 - Disclaimer

ORBIFLY MET'MAP TEAM :

Programmation & Développement : Alexandra Zaïnal
Conception & Développement : Baudouin d'Aumeries
Co-Programmation & Développement : Marc-Olivier Méhu
Soutien technique & logistique : Manuel Goepfert

Contact : metmap@orbifly.com




SOURCES & CREDITS :

   NOAA